sensor_id;sensor_type;location;lat;lon;timestamp;P1;durP1;ratioP1;P2;durP2;ratioP2
10293;SDS011;5192;50.328;7.610;2023-02-28T00:01:26;3.30;;;1.80;;
10293;SDS011;5192;50.328;7.610;2023-02-28T00:03:53;1.90;;;1.70;;
10293;SDS011;5192;50.328;7.610;2023-02-28T00:06:18;3.37;;;1.80;;
10293;SDS011;5192;50.328;7.610;2023-02-28T00:08:47;3.13;;;1.80;;
10293;SDS011;5192;50.328;7.610;2023-02-28T00:11:14;3.97;;;1.90;;
10293;SDS011;5192;50.328;7.610;2023-02-28T00:13:44;3.10;;;1.93;;
10293;SDS011;5192;50.328;7.610;2023-02-28T00:16:14;3.20;;;2.20;;
10293;SDS011;5192;50.328;7.610;2023-02-28T00:18:45;2.50;;;1.90;;
10293;SDS011;5192;50.328;7.610;2023-02-28T00:21:15;3.53;;;2.17;;
10293;SDS011;5192;50.328;7.610;2023-02-28T00:23:44;3.97;;;2.13;;
10293;SDS011;5192;50.328;7.610;2023-02-28T00:26:11;4.20;;;2.40;;
10293;SDS011;5192;50.328;7.610;2023-02-28T00:28:39;3.37;;;2.23;;
10293;SDS011;5192;50.328;7.610;2023-02-28T00:31:06;2.53;;;2.30;;
10293;SDS011;5192;50.328;7.610;2023-02-28T00:33:34;2.53;;;2.17;;
10293;SDS011;5192;50.328;7.610;2023-02-28T00:36:05;3.23;;;2.20;;
10293;SDS011;5192;50.328;7.610;2023-02-28T00:38:35;3.40;;;2.47;;
10293;SDS011;5192;50.328;7.610;2023-02-28T00:41:04;2.60;;;2.40;;
10293;SDS011;5192;50.328;7.610;2023-02-28T00:43:35;2.70;;;2.40;;
10293;SDS011;5192;50.328;7.610;2023-02-28T00:46:05;2.60;;;2.40;;
10293;SDS011;5192;50.328;7.610;2023-02-28T00:48:34;2.47;;;2.23;;
10293;SDS011;5192;50.328;7.610;2023-02-28T00:51:01;3.83;;;2.30;;
10293;SDS011;5192;50.328;7.610;2023-02-28T00:53:29;3.87;;;2.40;;
10293;SDS011;5192;50.328;7.610;2023-02-28T00:55:58;4.13;;;2.77;;
10293;SDS011;5192;50.328;7.610;2023-02-28T00:58:23;3.50;;;2.20;;
10293;SDS011;5192;50.328;7.610;2023-02-28T01:00:50;3.23;;;2.37;;
10293;SDS011;5192;50.328;7.610;2023-02-28T01:03:19;6.13;;;2.90;;
10293;SDS011;5192;50.328;7.610;2023-02-28T01:05:46;3.07;;;2.80;;
10293;SDS011;5192;50.328;7.610;2023-02-28T01:08:14;3.57;;;2.57;;
10293;SDS011;5192;50.328;7.610;2023-02-28T01:10:41;4.87;;;2.50;;
10293;SDS011;5192;50.328;7.610;2023-02-28T01:13:09;3.13;;;2.60;;
10293;SDS011;5192;50.328;7.610;2023-02-28T01:15:37;5.30;;;3.07;;
10293;SDS011;5192;50.328;7.610;2023-02-28T01:18:09;3.60;;;2.80;;
10293;SDS011;5192;50.328;7.610;2023-02-28T01:20:39;4.37;;;2.57;;
10293;SDS011;5192;50.328;7.610;2023-02-28T01:23:07;5.47;;;3.00;;
10293;SDS011;5192;50.328;7.610;2023-02-28T01:25:37;3.30;;;2.70;;
10293;SDS011;5192;50.328;7.610;2023-02-28T01:28:04;3.67;;;2.90;;
10293;SDS011;5192;50.328;7.610;2023-02-28T01:30:35;4.93;;;3.20;;
10293;SDS011;5192;50.328;7.610;2023-02-28T01:33:02;3.87;;;3.10;;
10293;SDS011;5192;50.328;7.610;2023-02-28T01:35:32;3.83;;;2.90;;
10293;SDS011;5192;50.328;7.610;2023-02-28T01:37:59;5.30;;;3.33;;
10293;SDS011;5192;50.328;7.610;2023-02-28T01:40:26;3.33;;;2.97;;
10293;SDS011;5192;50.328;7.610;2023-02-28T01:42:53;3.93;;;3.10;;
10293;SDS011;5192;50.328;7.610;2023-02-28T01:45:27;4.23;;;3.10;;
10293;SDS011;5192;50.328;7.610;2023-02-28T01:47:58;4.20;;;3.30;;
10293;SDS011;5192;50.328;7.610;2023-02-28T01:50:29;4.63;;;3.20;;
10293;SDS011;5192;50.328;7.610;2023-02-28T01:53:01;7.37;;;3.87;;
10293;SDS011;5192;50.328;7.610;2023-02-28T01:55:33;8.97;;;3.43;;
10293;SDS011;5192;50.328;7.610;2023-02-28T01:58:02;8.97;;;3.83;;
10293;SDS011;5192;50.328;7.610;2023-02-28T02:00:31;3.63;;;3.23;;
10293;SDS011;5192;50.328;7.610;2023-02-28T02:02:59;6.20;;;3.37;;
10293;SDS011;5192;50.328;7.610;2023-02-28T02:05:31;5.47;;;3.33;;
10293;SDS011;5192;50.328;7.610;2023-02-28T02:08:05;5.33;;;3.70;;
10293;SDS011;5192;50.328;7.610;2023-02-28T02:11:00;4.80;;;3.60;;
10293;SDS011;5192;50.328;7.610;2023-02-28T02:13:37;4.63;;;3.30;;
10293;SDS011;5192;50.328;7.610;2023-02-28T02:26:14;4.70;;;3.70;;
10293;SDS011;5192;50.328;7.610;2023-02-28T02:32:18;4.30;;;3.47;;
10293;SDS011;5192;50.328;7.610;2023-02-28T02:41:13;6.10;;;4.37;;
10293;SDS011;5192;50.328;7.610;2023-02-28T02:47:12;5.30;;;4.23;;
10293;SDS011;5192;50.328;7.610;2023-02-28T02:49:44;5.47;;;4.13;;
10293;SDS011;5192;50.328;7.610;2023-02-28T02:52:16;5.50;;;4.10;;
10293;SDS011;5192;50.328;7.610;2023-02-28T02:54:48;5.33;;;3.80;;
10293;SDS011;5192;50.328;7.610;2023-02-28T02:57:27;5.50;;;4.30;;
10293;SDS011;5192;50.328;7.610;2023-02-28T02:59:57;4.93;;;3.80;;
10293;SDS011;5192;50.328;7.610;2023-02-28T03:02:26;5.07;;;3.77;;
10293;SDS011;5192;50.328;7.610;2023-02-28T03:05:00;4.67;;;3.97;;
10293;SDS011;5192;50.328;7.610;2023-02-28T03:07:34;4.93;;;3.87;;
10293;SDS011;5192;50.328;7.610;2023-02-28T03:09:59;4.90;;;4.07;;
10293;SDS011;5192;50.328;7.610;2023-02-28T03:12:32;4.10;;;3.70;;
10293;SDS011;5192;50.328;7.610;2023-02-28T03:15:44;4.83;;;3.70;;
10293;SDS011;5192;50.328;7.610;2023-02-28T03:18:27;5.50;;;3.87;;
10293;SDS011;5192;50.328;7.610;2023-02-28T03:21:11;4.40;;;3.63;;
10293;SDS011;5192;50.328;7.610;2023-02-28T03:27:23;5.27;;;3.63;;
10293;SDS011;5192;50.328;7.610;2023-02-28T03:30:13;4.93;;;3.57;;
10293;SDS011;5192;50.328;7.610;2023-02-28T03:35:56;4.47;;;3.17;;
10293;SDS011;5192;50.328;7.610;2023-02-28T03:38:46;5.07;;;3.90;;
10293;SDS011;5192;50.328;7.610;2023-02-28T03:44:39;6.30;;;3.50;;
10293;SDS011;5192;50.328;7.610;2023-02-28T03:47:21;5.33;;;3.57;;
10293;SDS011;5192;50.328;7.610;2023-02-28T03:53:00;4.60;;;3.30;;
10293;SDS011;5192;50.328;7.610;2023-02-28T03:55:59;3.53;;;3.00;;
10293;SDS011;5192;50.328;7.610;2023-02-28T04:01:38;4.87;;;3.57;;
10293;SDS011;5192;50.328;7.610;2023-02-28T04:04:10;3.80;;;3.40;;
10293;SDS011;5192;50.328;7.610;2023-02-28T04:06:39;5.90;;;3.43;;
10293;SDS011;5192;50.328;7.610;2023-02-28T04:09:06;4.70;;;3.87;;
10293;SDS011;5192;50.328;7.610;2023-02-28T04:14:22;4.10;;;3.50;;
10293;SDS011;5192;50.328;7.610;2023-02-28T04:16:49;5.10;;;3.60;;
10293;SDS011;5192;50.328;7.610;2023-02-28T04:19:17;4.73;;;3.80;;
10293;SDS011;5192;50.328;7.610;2023-02-28T04:24:27;5.03;;;3.80;;
10293;SDS011;5192;50.328;7.610;2023-02-28T04:26:56;5.70;;;3.83;;
10293;SDS011;5192;50.328;7.610;2023-02-28T04:29:24;5.03;;;3.57;;
10293;SDS011;5192;50.328;7.610;2023-02-28T04:32:02;4.57;;;3.93;;
10293;SDS011;5192;50.328;7.610;2023-02-28T04:34:32;5.30;;;3.47;;
10293;SDS011;5192;50.328;7.610;2023-02-28T04:36:59;4.03;;;3.30;;
10293;SDS011;5192;50.328;7.610;2023-02-28T04:39:26;4.73;;;4.17;;
10293;SDS011;5192;50.328;7.610;2023-02-28T04:41:53;4.97;;;3.90;;
10293;SDS011;5192;50.328;7.610;2023-02-28T04:44:22;4.73;;;3.73;;
10293;SDS011;5192;50.328;7.610;2023-02-28T04:46:49;4.90;;;3.60;;
10293;SDS011;5192;50.328;7.610;2023-02-28T04:49:16;4.43;;;3.57;;
10293;SDS011;5192;50.328;7.610;2023-02-28T04:51:43;4.30;;;3.53;;
10293;SDS011;5192;50.328;7.610;2023-02-28T04:54:11;4.40;;;3.80;;
10293;SDS011;5192;50.328;7.610;2023-02-28T04:56:42;4.93;;;3.70;;
10293;SDS011;5192;50.328;7.610;2023-02-28T04:59:10;7.20;;;4.13;;
10293;SDS011;5192;50.328;7.610;2023-02-28T05:01:38;3.83;;;3.20;;
10293;SDS011;5192;50.328;7.610;2023-02-28T05:04:04;3.60;;;3.30;;
10293;SDS011;5192;50.328;7.610;2023-02-28T05:06:33;6.03;;;4.97;;
10293;SDS011;5192;50.328;7.610;2023-02-28T05:09:01;10.33;;;7.30;;
10293;SDS011;5192;50.328;7.610;2023-02-28T05:11:30;5.17;;;3.47;;
10293;SDS011;5192;50.328;7.610;2023-02-28T05:14:04;4.50;;;3.43;;
10293;SDS011;5192;50.328;7.610;2023-02-28T05:16:34;5.77;;;3.47;;
10293;SDS011;5192;50.328;7.610;2023-02-28T05:19:01;5.23;;;3.50;;
10293;SDS011;5192;50.328;7.610;2023-02-28T05:21:36;5.23;;;3.83;;
10293;SDS011;5192;50.328;7.610;2023-02-28T05:24:08;4.87;;;3.57;;
10293;SDS011;5192;50.328;7.610;2023-02-28T05:26:40;5.60;;;4.00;;
10293;SDS011;5192;50.328;7.610;2023-02-28T05:29:07;4.80;;;3.50;;
10293;SDS011;5192;50.328;7.610;2023-02-28T05:31:36;4.13;;;3.57;;
10293;SDS011;5192;50.328;7.610;2023-02-28T05:34:07;4.37;;;3.43;;
10293;SDS011;5192;50.328;7.610;2023-02-28T05:36:38;4.40;;;3.87;;
10293;SDS011;5192;50.328;7.610;2023-02-28T05:39:05;5.27;;;4.07;;
10293;SDS011;5192;50.328;7.610;2023-02-28T05:41:40;5.37;;;3.80;;
10293;SDS011;5192;50.328;7.610;2023-02-28T05:44:09;5.47;;;3.67;;
10293;SDS011;5192;50.328;7.610;2023-02-28T05:46:34;5.07;;;3.53;;
10293;SDS011;5192;50.328;7.610;2023-02-28T05:49:00;5.13;;;3.80;;
10293;SDS011;5192;50.328;7.610;2023-02-28T05:51:27;4.63;;;3.73;;
10293;SDS011;5192;50.328;7.610;2023-02-28T05:54:02;5.43;;;3.63;;
10293;SDS011;5192;50.328;7.610;2023-02-28T05:56:28;5.40;;;3.90;;
10293;SDS011;5192;50.328;7.610;2023-02-28T05:58:57;5.60;;;4.00;;
10293;SDS011;5192;50.328;7.610;2023-02-28T06:04:20;6.03;;;4.23;;
10293;SDS011;5192;50.328;7.610;2023-02-28T06:06:47;4.80;;;3.93;;
10293;SDS011;5192;50.328;7.610;2023-02-28T06:09:19;5.97;;;4.07;;
10293;SDS011;5192;50.328;7.610;2023-02-28T06:11:46;4.43;;;3.43;;
10293;SDS011;5192;50.328;7.610;2023-02-28T06:14:18;4.37;;;3.77;;
10293;SDS011;5192;50.328;7.610;2023-02-28T06:16:58;4.50;;;3.57;;
10293;SDS011;5192;50.328;7.610;2023-02-28T06:19:26;6.40;;;3.97;;
10293;SDS011;5192;50.328;7.610;2023-02-28T06:21:56;5.50;;;3.77;;
10293;SDS011;5192;50.328;7.610;2023-02-28T06:24:24;4.50;;;3.50;;
10293;SDS011;5192;50.328;7.610;2023-02-28T06:26:54;5.57;;;3.67;;
10293;SDS011;5192;50.328;7.610;2023-02-28T06:29:31;6.70;;;4.23;;
10293;SDS011;5192;50.328;7.610;2023-02-28T06:32:00;5.23;;;3.70;;
10293;SDS011;5192;50.328;7.610;2023-02-28T06:34:27;4.63;;;3.63;;
10293;SDS011;5192;50.328;7.610;2023-02-28T06:36:54;4.23;;;3.50;;
10293;SDS011;5192;50.328;7.610;2023-02-28T06:39:21;5.83;;;3.90;;
10293;SDS011;5192;50.328;7.610;2023-02-28T06:41:49;6.50;;;4.20;;
10293;SDS011;5192;50.328;7.610;2023-02-28T06:44:17;4.73;;;3.90;;
10293;SDS011;5192;50.328;7.610;2023-02-28T06:46:44;5.23;;;3.70;;
10293;SDS011;5192;50.328;7.610;2023-02-28T06:49:10;5.20;;;3.90;;
10293;SDS011;5192;50.328;7.610;2023-02-28T06:51:39;9.07;;;5.30;;
10293;SDS011;5192;50.328;7.610;2023-02-28T06:54:08;4.93;;;4.07;;
10293;SDS011;5192;50.328;7.610;2023-02-28T06:56:36;6.13;;;4.43;;
10293;SDS011;5192;50.328;7.610;2023-02-28T06:59:06;6.33;;;4.37;;
10293;SDS011;5192;50.328;7.610;2023-02-28T07:01:33;4.87;;;3.87;;
10293;SDS011;5192;50.328;7.610;2023-02-28T07:04:00;6.27;;;4.30;;
10293;SDS011;5192;50.328;7.610;2023-02-28T07:06:26;5.00;;;3.77;;
10293;SDS011;5192;50.328;7.610;2023-02-28T07:08:56;6.70;;;4.10;;
10293;SDS011;5192;50.328;7.610;2023-02-28T07:11:25;7.27;;;4.30;;
10293;SDS011;5192;50.328;7.610;2023-02-28T07:13:54;5.83;;;4.40;;
10293;SDS011;5192;50.328;7.610;2023-02-28T07:16:24;5.23;;;4.17;;
10293;SDS011;5192;50.328;7.610;2023-02-28T07:18:55;5.23;;;4.10;;
10293;SDS011;5192;50.328;7.610;2023-02-28T07:21:20;7.17;;;4.63;;
10293;SDS011;5192;50.328;7.610;2023-02-28T07:23:48;5.87;;;4.53;;
10293;SDS011;5192;50.328;7.610;2023-02-28T07:26:16;5.13;;;4.17;;
10293;SDS011;5192;50.328;7.610;2023-02-28T07:28:45;6.13;;;4.40;;
10293;SDS011;5192;50.328;7.610;2023-02-28T07:31:13;6.73;;;4.43;;
10293;SDS011;5192;50.328;7.610;2023-02-28T07:33:41;5.80;;;4.87;;
10293;SDS011;5192;50.328;7.610;2023-02-28T07:36:09;4.70;;;3.97;;
10293;SDS011;5192;50.328;7.610;2023-02-28T07:38:45;5.47;;;4.77;;
10293;SDS011;5192;50.328;7.610;2023-02-28T07:41:15;5.30;;;4.17;;
10293;SDS011;5192;50.328;7.610;2023-02-28T07:43:44;5.47;;;4.20;;
10293;SDS011;5192;50.328;7.610;2023-02-28T07:46:11;6.73;;;4.30;;
10293;SDS011;5192;50.328;7.610;2023-02-28T07:48:41;8.70;;;4.70;;
10293;SDS011;5192;50.328;7.610;2023-02-28T07:51:08;7.47;;;3.97;;
10293;SDS011;5192;50.328;7.610;2023-02-28T07:53:36;6.53;;;4.70;;
10293;SDS011;5192;50.328;7.610;2023-02-28T07:56:02;7.07;;;4.80;;
10293;SDS011;5192;50.328;7.610;2023-02-28T07:58:29;5.13;;;4.20;;
10293;SDS011;5192;50.328;7.610;2023-02-28T08:00:56;9.77;;;4.47;;
10293;SDS011;5192;50.328;7.610;2023-02-28T08:03:34;6.57;;;4.50;;
10293;SDS011;5192;50.328;7.610;2023-02-28T08:06:02;5.77;;;3.93;;
10293;SDS011;5192;50.328;7.610;2023-02-28T08:08:43;13.03;;;5.10;;
10293;SDS011;5192;50.328;7.610;2023-02-28T08:11:12;6.30;;;4.87;;
10293;SDS011;5192;50.328;7.610;2023-02-28T08:13:39;7.07;;;4.60;;
10293;SDS011;5192;50.328;7.610;2023-02-28T08:16:06;7.33;;;4.13;;
10293;SDS011;5192;50.328;7.610;2023-02-28T08:18:32;6.03;;;4.80;;
10293;SDS011;5192;50.328;7.610;2023-02-28T08:20:59;8.00;;;4.77;;
10293;SDS011;5192;50.328;7.610;2023-02-28T08:23:25;5.83;;;4.67;;
10293;SDS011;5192;50.328;7.610;2023-02-28T08:25:55;8.20;;;4.30;;
10293;SDS011;5192;50.328;7.610;2023-02-28T08:28:25;5.87;;;3.70;;
10293;SDS011;5192;50.328;7.610;2023-02-28T08:30:52;6.20;;;4.10;;
10293;SDS011;5192;50.328;7.610;2023-02-28T08:33:21;5.53;;;4.00;;
10293;SDS011;5192;50.328;7.610;2023-02-28T08:35:48;4.33;;;3.60;;
10293;SDS011;5192;50.328;7.610;2023-02-28T08:38:24;3.80;;;3.40;;
10293;SDS011;5192;50.328;7.610;2023-02-28T08:41:02;4.67;;;3.33;;
10293;SDS011;5192;50.328;7.610;2023-02-28T08:43:33;4.67;;;3.00;;
10293;SDS011;5192;50.328;7.610;2023-02-28T08:46:01;4.00;;;2.83;;
10293;SDS011;5192;50.328;7.610;2023-02-28T08:48:29;4.43;;;3.20;;
10293;SDS011;5192;50.328;7.610;2023-02-28T08:51:01;3.53;;;3.10;;
10293;SDS011;5192;50.328;7.610;2023-02-28T08:53:44;3.67;;;3.00;;
10293;SDS011;5192;50.328;7.610;2023-02-28T08:56:16;6.20;;;3.23;;
10293;SDS011;5192;50.328;7.610;2023-02-28T08:58:42;3.87;;;2.93;;
10293;SDS011;5192;50.328;7.610;2023-02-28T09:01:13;3.70;;;2.80;;
10293;SDS011;5192;50.328;7.610;2023-02-28T09:03:43;3.40;;;2.93;;
10293;SDS011;5192;50.328;7.610;2023-02-28T09:06:14;3.67;;;2.97;;
10293;SDS011;5192;50.328;7.610;2023-02-28T09:08:42;3.13;;;2.40;;
10293;SDS011;5192;50.328;7.610;2023-02-28T09:11:11;4.07;;;3.20;;
10293;SDS011;5192;50.328;7.610;2023-02-28T09:13:39;5.03;;;3.27;;
10293;SDS011;5192;50.328;7.610;2023-02-28T09:16:09;3.33;;;2.90;;
10293;SDS011;5192;50.328;7.610;2023-02-28T09:18:40;4.17;;;2.93;;
10293;SDS011;5192;50.328;7.610;2023-02-28T09:21:08;3.50;;;2.60;;
10293;SDS011;5192;50.328;7.610;2023-02-28T09:23:37;2.73;;;2.50;;
10293;SDS011;5192;50.328;7.610;2023-02-28T09:26:07;5.83;;;2.97;;
10293;SDS011;5192;50.328;7.610;2023-02-28T09:28:34;3.53;;;3.07;;
10293;SDS011;5192;50.328;7.610;2023-02-28T09:31:01;3.70;;;3.27;;
10293;SDS011;5192;50.328;7.610;2023-02-28T09:33:28;3.93;;;3.10;;
10293;SDS011;5192;50.328;7.610;2023-02-28T09:35:59;3.80;;;3.40;;
10293;SDS011;5192;50.328;7.610;2023-02-28T09:38:27;3.90;;;3.47;;
10293;SDS011;5192;50.328;7.610;2023-02-28T09:40:58;3.90;;;3.00;;
10293;SDS011;5192;50.328;7.610;2023-02-28T09:43:33;5.30;;;3.10;;
10293;SDS011;5192;50.328;7.610;2023-02-28T09:46:14;3.83;;;2.93;;
10293;SDS011;5192;50.328;7.610;2023-02-28T09:49:00;4.23;;;3.47;;
10293;SDS011;5192;50.328;7.610;2023-02-28T09:54:30;4.30;;;2.70;;
10293;SDS011;5192;50.328;7.610;2023-02-28T10:03:00;5.20;;;3.30;;
10293;SDS011;5192;50.328;7.610;2023-02-28T10:05:51;4.60;;;2.70;;
10293;SDS011;5192;50.328;7.610;2023-02-28T10:11:21;4.47;;;3.10;;
10293;SDS011;5192;50.328;7.610;2023-02-28T10:13:53;3.60;;;2.80;;
10293;SDS011;5192;50.328;7.610;2023-02-28T10:16:35;3.10;;;2.80;;
10293;SDS011;5192;50.328;7.610;2023-02-28T10:19:13;4.40;;;3.03;;
10293;SDS011;5192;50.328;7.610;2023-02-28T10:22:08;3.77;;;2.70;;
10293;SDS011;5192;50.328;7.610;2023-02-28T10:24:45;3.87;;;3.37;;
10293;SDS011;5192;50.328;7.610;2023-02-28T10:30:02;4.37;;;3.07;;
10293;SDS011;5192;50.328;7.610;2023-02-28T10:32:33;3.60;;;2.90;;
10293;SDS011;5192;50.328;7.610;2023-02-28T10:35:10;4.43;;;3.23;;
10293;SDS011;5192;50.328;7.610;2023-02-28T10:37:58;4.67;;;3.20;;
10293;SDS011;5192;50.328;7.610;2023-02-28T10:43:19;3.90;;;3.10;;
10293;SDS011;5192;50.328;7.610;2023-02-28T10:45:58;3.70;;;3.13;;
10293;SDS011;5192;50.328;7.610;2023-02-28T10:51:39;3.87;;;3.30;;
10293;SDS011;5192;50.328;7.610;2023-02-28T10:54:29;4.10;;;3.27;;
10293;SDS011;5192;50.328;7.610;2023-02-28T10:59:53;3.87;;;3.30;;
10293;SDS011;5192;50.328;7.610;2023-02-28T11:02:54;4.67;;;3.10;;
10293;SDS011;5192;50.328;7.610;2023-02-28T11:05:34;3.60;;;2.90;;
10293;SDS011;5192;50.328;7.610;2023-02-28T11:08:19;3.87;;;3.30;;
10293;SDS011;5192;50.328;7.610;2023-02-28T11:10:56;3.63;;;3.10;;
10293;SDS011;5192;50.328;7.610;2023-02-28T11:13:30;3.40;;;3.10;;
10293;SDS011;5192;50.328;7.610;2023-02-28T11:16:01;4.07;;;2.90;;
10293;SDS011;5192;50.328;7.610;2023-02-28T11:18:42;3.50;;;3.20;;
10293;SDS011;5192;50.328;7.610;2023-02-28T11:21:33;3.37;;;3.07;;
10293;SDS011;5192;50.328;7.610;2023-02-28T11:26:53;4.50;;;3.40;;
10293;SDS011;5192;50.328;7.610;2023-02-28T11:29:27;3.77;;;3.40;;
10293;SDS011;5192;50.328;7.610;2023-02-28T11:32:18;3.70;;;3.40;;
10293;SDS011;5192;50.328;7.610;2023-02-28T11:34:59;4.50;;;3.40;;
10293;SDS011;5192;50.328;7.610;2023-02-28T11:37:29;4.50;;;3.53;;
10293;SDS011;5192;50.328;7.610;2023-02-28T11:39:59;3.93;;;3.47;;
10293;SDS011;5192;50.328;7.610;2023-02-28T11:45:34;3.50;;;3.20;;
10293;SDS011;5192;50.328;7.610;2023-02-28T11:48:04;3.73;;;3.40;;
10293;SDS011;5192;50.328;7.610;2023-02-28T11:56:43;3.57;;;3.27;;
10293;SDS011;5192;50.328;7.610;2023-02-28T12:00:02;4.23;;;3.70;;
10293;SDS011;5192;50.328;7.610;2023-02-28T12:03:01;5.33;;;3.60;;
10293;SDS011;5192;50.328;7.610;2023-02-28T12:05:32;4.13;;;3.40;;
10293;SDS011;5192;50.328;7.610;2023-02-28T12:11:17;5.50;;;3.40;;
10293;SDS011;5192;50.328;7.610;2023-02-28T12:23:23;4.73;;;4.00;;
10293;SDS011;5192;50.328;7.610;2023-02-28T12:26:19;4.03;;;3.13;;
10293;SDS011;5192;50.328;7.610;2023-02-28T12:28:54;4.17;;;3.20;;
10293;SDS011;5192;50.328;7.610;2023-02-28T12:31:45;3.67;;;3.37;;
10293;SDS011;5192;50.328;7.610;2023-02-28T12:34:19;3.47;;;2.90;;
10293;SDS011;5192;50.328;7.610;2023-02-28T12:37:10;3.70;;;3.40;;
10293;SDS011;5192;50.328;7.610;2023-02-28T12:39:47;3.40;;;3.10;;
10293;SDS011;5192;50.328;7.610;2023-02-28T12:45:45;4.17;;;3.77;;
10293;SDS011;5192;50.328;7.610;2023-02-28T12:48:30;4.20;;;3.80;;
10293;SDS011;5192;50.328;7.610;2023-02-28T12:51:05;4.03;;;3.63;;
10293;SDS011;5192;50.328;7.610;2023-02-28T12:54:04;3.83;;;3.10;;
10293;SDS011;5192;50.328;7.610;2023-02-28T12:56:43;3.70;;;3.40;;
10293;SDS011;5192;50.328;7.610;2023-02-28T13:10:43;4.10;;;3.33;;
10293;SDS011;5192;50.328;7.610;2023-02-28T13:13:24;4.00;;;3.70;;
10293;SDS011;5192;50.328;7.610;2023-02-28T13:16:03;5.00;;;3.90;;
10293;SDS011;5192;50.328;7.610;2023-02-28T13:18:37;4.50;;;3.93;;
10293;SDS011;5192;50.328;7.610;2023-02-28T13:21:09;3.90;;;3.60;;
10293;SDS011;5192;50.328;7.610;2023-02-28T13:34:32;4.03;;;3.50;;
10293;SDS011;5192;50.328;7.610;2023-02-28T13:39:54;4.23;;;3.80;;
10293;SDS011;5192;50.328;7.610;2023-02-28T13:45:25;4.30;;;3.90;;
10293;SDS011;5192;50.328;7.610;2023-02-28T13:48:18;4.97;;;4.07;;
10293;SDS011;5192;50.328;7.610;2023-02-28T13:50:44;5.03;;;3.97;;
10293;SDS011;5192;50.328;7.610;2023-02-28T13:53:22;4.27;;;3.73;;
10293;SDS011;5192;50.328;7.610;2023-02-28T14:01:45;4.40;;;4.00;;
10293;SDS011;5192;50.328;7.610;2023-02-28T14:07:43;4.83;;;4.20;;
10293;SDS011;5192;50.328;7.610;2023-02-28T14:16:02;4.93;;;4.23;;
10293;SDS011;5192;50.328;7.610;2023-02-28T14:18:35;4.47;;;4.03;;
10293;SDS011;5192;50.328;7.610;2023-02-28T14:21:14;4.57;;;4.17;;
10293;SDS011;5192;50.328;7.610;2023-02-28T14:24:09;4.70;;;4.30;;
10293;SDS011;5192;50.328;7.610;2023-02-28T14:36:00;4.80;;;4.30;;
10293;SDS011;5192;50.328;7.610;2023-02-28T14:41:35;4.40;;;4.00;;
10293;SDS011;5192;50.328;7.610;2023-02-28T14:47:02;4.50;;;4.10;;
10293;SDS011;5192;50.328;7.610;2023-02-28T14:52:30;5.50;;;4.63;;
10293;SDS011;5192;50.328;7.610;2023-02-28T14:55:11;4.73;;;4.33;;
10293;SDS011;5192;50.328;7.610;2023-02-28T14:57:43;4.40;;;4.00;;
10293;SDS011;5192;50.328;7.610;2023-02-28T15:02:59;4.50;;;4.10;;
10293;SDS011;5192;50.328;7.610;2023-02-28T15:05:28;4.97;;;4.47;;
10293;SDS011;5192;50.328;7.610;2023-02-28T15:10:44;5.33;;;4.43;;
10293;SDS011;5192;50.328;7.610;2023-02-28T15:16:20;5.13;;;4.40;;
10293;SDS011;5192;50.328;7.610;2023-02-28T15:19:00;5.50;;;4.60;;
10293;SDS011;5192;50.328;7.610;2023-02-28T15:21:48;7.07;;;4.47;;
10293;SDS011;5192;50.328;7.610;2023-02-28T15:27:26;7.00;;;4.17;;
10293;SDS011;5192;50.328;7.610;2023-02-28T15:30:11;4.47;;;4.07;;
10293;SDS011;5192;50.328;7.610;2023-02-28T15:33:01;5.00;;;4.03;;
10293;SDS011;5192;50.328;7.610;2023-02-28T15:36:10;4.67;;;4.13;;
10293;SDS011;5192;50.328;7.610;2023-02-28T15:38:53;4.70;;;4.27;;
10293;SDS011;5192;50.328;7.610;2023-02-28T15:44:35;4.60;;;4.07;;
10293;SDS011;5192;50.328;7.610;2023-02-28T15:50:06;4.83;;;4.30;;
10293;SDS011;5192;50.328;7.610;2023-02-28T15:52:42;4.50;;;3.93;;
10293;SDS011;5192;50.328;7.610;2023-02-28T15:55:20;4.80;;;4.30;;
10293;SDS011;5192;50.328;7.610;2023-02-28T15:57:53;4.97;;;4.43;;
10293;SDS011;5192;50.328;7.610;2023-02-28T16:00:28;4.90;;;4.13;;
10293;SDS011;5192;50.328;7.610;2023-02-28T16:02:56;5.20;;;4.50;;
10293;SDS011;5192;50.328;7.610;2023-02-28T16:08:16;4.60;;;4.10;;
10293;SDS011;5192;50.328;7.610;2023-02-28T16:10:44;6.20;;;4.00;;
10293;SDS011;5192;50.328;7.610;2023-02-28T16:13:11;4.97;;;3.60;;
10293;SDS011;5192;50.328;7.610;2023-02-28T16:15:41;4.60;;;4.20;;
10293;SDS011;5192;50.328;7.610;2023-02-28T16:18:12;5.10;;;4.33;;
10293;SDS011;5192;50.328;7.610;2023-02-28T16:20:39;4.73;;;4.00;;
10293;SDS011;5192;50.328;7.610;2023-02-28T16:23:06;4.37;;;3.97;;
10293;SDS011;5192;50.328;7.610;2023-02-28T16:25:36;5.00;;;4.40;;
10293;SDS011;5192;50.328;7.610;2023-02-28T16:28:05;4.70;;;3.97;;
10293;SDS011;5192;50.328;7.610;2023-02-28T16:30:41;5.00;;;4.30;;
10293;SDS011;5192;50.328;7.610;2023-02-28T16:33:09;4.53;;;4.13;;
10293;SDS011;5192;50.328;7.610;2023-02-28T16:35:38;4.73;;;3.90;;
10293;SDS011;5192;50.328;7.610;2023-02-28T16:38:05;5.57;;;4.77;;
10293;SDS011;5192;50.328;7.610;2023-02-28T16:40:33;5.00;;;4.50;;
10293;SDS011;5192;50.328;7.610;2023-02-28T16:43:00;5.17;;;4.27;;
10293;SDS011;5192;50.328;7.610;2023-02-28T16:45:33;5.53;;;4.60;;
10293;SDS011;5192;50.328;7.610;2023-02-28T16:48:01;5.57;;;4.83;;
10293;SDS011;5192;50.328;7.610;2023-02-28T16:50:28;5.17;;;4.07;;
10293;SDS011;5192;50.328;7.610;2023-02-28T16:52:56;4.87;;;4.17;;
10293;SDS011;5192;50.328;7.610;2023-02-28T16:55:23;4.17;;;3.73;;
10293;SDS011;5192;50.328;7.610;2023-02-28T16:57:55;4.90;;;4.40;;
10293;SDS011;5192;50.328;7.610;2023-02-28T17:00:23;5.00;;;3.97;;
10293;SDS011;5192;50.328;7.610;2023-02-28T17:02:51;5.73;;;4.33;;
10293;SDS011;5192;50.328;7.610;2023-02-28T17:05:17;5.83;;;4.43;;
10293;SDS011;5192;50.328;7.610;2023-02-28T17:07:45;6.80;;;4.40;;
10293;SDS011;5192;50.328;7.610;2023-02-28T17:10:20;5.00;;;4.40;;
10293;SDS011;5192;50.328;7.610;2023-02-28T17:12:48;4.57;;;4.17;;
10293;SDS011;5192;50.328;7.610;2023-02-28T17:15:17;4.50;;;4.10;;
10293;SDS011;5192;50.328;7.610;2023-02-28T17:17:46;4.67;;;4.10;;
10293;SDS011;5192;50.328;7.610;2023-02-28T17:20:15;4.03;;;3.53;;
10293;SDS011;5192;50.328;7.610;2023-02-28T17:22:48;3.87;;;3.50;;
10293;SDS011;5192;50.328;7.610;2023-02-28T17:25:16;5.40;;;3.80;;
10293;SDS011;5192;50.328;7.610;2023-02-28T17:27:45;4.20;;;3.43;;
10293;SDS011;5192;50.328;7.610;2023-02-28T17:30:22;3.90;;;3.50;;
10293;SDS011;5192;50.328;7.610;2023-02-28T17:32:53;4.90;;;3.70;;
10293;SDS011;5192;50.328;7.610;2023-02-28T17:35:23;5.00;;;4.13;;
10293;SDS011;5192;50.328;7.610;2023-02-28T17:37:53;6.43;;;4.30;;
10293;SDS011;5192;50.328;7.610;2023-02-28T17:40:21;5.80;;;4.10;;
10293;SDS011;5192;50.328;7.610;2023-02-28T17:42:49;5.87;;;4.20;;
10293;SDS011;5192;50.328;7.610;2023-02-28T17:45:18;5.37;;;4.67;;
10293;SDS011;5192;50.328;7.610;2023-02-28T17:47:47;5.63;;;4.50;;
10293;SDS011;5192;50.328;7.610;2023-02-28T17:50:19;5.07;;;3.80;;
10293;SDS011;5192;50.328;7.610;2023-02-28T17:52:48;8.43;;;4.00;;
10293;SDS011;5192;50.328;7.610;2023-02-28T17:55:16;5.10;;;3.93;;
10293;SDS011;5192;50.328;7.610;2023-02-28T17:57:45;7.23;;;3.97;;
10293;SDS011;5192;50.328;7.610;2023-02-28T18:00:13;6.47;;;3.67;;
10293;SDS011;5192;50.328;7.610;2023-02-28T18:02:43;4.87;;;3.40;;
10293;SDS011;5192;50.328;7.610;2023-02-28T18:05:12;4.93;;;3.87;;
10293;SDS011;5192;50.328;7.610;2023-02-28T18:07:39;5.27;;;4.00;;
10293;SDS011;5192;50.328;7.610;2023-02-28T18:10:07;5.33;;;4.17;;
10293;SDS011;5192;50.328;7.610;2023-02-28T18:12:41;8.63;;;4.60;;
10293;SDS011;5192;50.328;7.610;2023-02-28T18:15:09;5.90;;;4.00;;
10293;SDS011;5192;50.328;7.610;2023-02-28T18:17:37;4.63;;;4.13;;
10293;SDS011;5192;50.328;7.610;2023-02-28T18:20:04;5.33;;;4.43;;
10293;SDS011;5192;50.328;7.610;2023-02-28T18:22:36;5.07;;;3.80;;
10293;SDS011;5192;50.328;7.610;2023-02-28T18:25:03;5.20;;;4.13;;
10293;SDS011;5192;50.328;7.610;2023-02-28T18:27:30;5.47;;;4.37;;
10293;SDS011;5192;50.328;7.610;2023-02-28T18:29:57;5.93;;;4.17;;
10293;SDS011;5192;50.328;7.610;2023-02-28T18:32:24;4.87;;;4.20;;